KQEN

Daegwallyeong Rw

Daegwallyeong Rw, South Korea
METAR KQEN 201250Z AUTO 25008G14KT 4000 HZ FEW017 M03/M06 A3004 RMK A02 TSNO
Observed Flight Rules
Jan-20 @ 12:50 UTC (20 minutes ago) Instrument Flight Rules
Wind Visibility Clouds Conditions
250° at 8 knots
 Gusting to 14 knots
4,007 meters
  • Few at 1,700' AGL
  • Haze
Temperatures Readings
Current -3°C / 27°F
Dewpoint -6°C / 21°F
Humidity 80%
Altimeter 30.04" Hg
Pressure 1017 hPa
METAR KQEN 201250Z AUTO 25008G14KT 4000 HZ FEW017 M03/M06 A3004 RMK A02 TSNO
Observed Flight Rules
Jan-20 @ 12:50 UTC
(20 minutes ago)
IFR
Wind Visibility
250° at 8 knots
 Gusting to 14 knots
4,007 meters
Clouds
  • Few at 1,700' AGL
Conditions
  • Haze
Temperature Dewpoint
-3°C / 27°F -6°C / 21°F
Humidity Altimeter Pressure
80% 30.04" Hg 1017 hPa